Lucan, Canada
Current Conditions -  °F | °C
As of 6:00 AM on Friday 31 Oct 2014 (Local Time) from CYXU Reporting Station
Rain Showers Rain Showers  
Wind Chill: 38°   Ceiling: 3800
Heat Index: 41°   Visibility: 10mi
Dew Point: 39°   Wind: 5mph
Humidity: 93%   Direction: 150°SSE
Pressure: 29.93"   Gusts: NA
Location:  43.19°N, 81.4°W
Report Text: CYXU 311000Z 15004KT 10SM -SHRA FEW025 OVC038 05/04 A2993 RMK SC2SC6 TCU ASOCTD SLP141
Loading
Personal Weather Stations






























Interactive Weather Map
Tropical Storm Tracking
New forecast layout! Learn more

10-Day Weather Forecast

Advertisements
Track Severe Weather on mobile